^^
Your Local Weather - Clay, NY Station Historical Data
Daily Summary for April 9, 2017 Units:  English    Metric   Both
« Previous Day
Next Day »
Daily Weekly Monthly Yearly Custom
  High: Low: Average:
Temperature: 67.7 °F 29.6 °F 50.4 °F
Dew Point: 35.9 °F 22.4 °F 28.8 °F
Humidity: 87% 21% 48%
Wind Speed: 5.0mph 0.0mph 1.2mph
Wind Gust: 9.0mph - -
Wind- - South
Pressure: 30.08 in 29.95 in -
Precipitation: 0.00 in    
Historical Graphs
 
 
Tabular Data for April 9, 2017
Time Temperature Dew Point Pressure Wind Wind Speed Wind Gust Humidity Rainfall Rate (Hourly) solar
00:02 33.3 °F 22.4 °F 29.98 in Calm     64% 0.00 in 0 W/m2
00:08 33.1 °F 22.6 °F 29.99 in Calm     65% 0.00 in 0 W/m2
00:14 32.9 °F 22.8 °F 29.99 in Calm     66% 0.00 in 0 W/m2
00:20 33.0 °F 22.9 °F 29.99 in Calm     66% 0.00 in 0 W/m2
00:26 32.9 °F 22.8 °F 29.99 in Calm     66% 0.00 in 0 W/m2
00:32 33.1 °F 23.7 °F 29.99 in Calm     68% 0.00 in 0 W/m2
00:38 33.6 °F 24.2 °F 29.99 in Calm     68% 0.00 in 0 W/m2
00:44 34.1 °F 24.6 °F 29.99 in Calm     68% 0.00 in 0 W/m2
00:50 34.8 °F 25.0 °F 29.98 in Calm     67% 0.00 in 0 W/m2
00:56 35.5 °F 25.6 °F 29.99 in Calm     67% 0.00 in 0 W/m2
01:02 35.9 °F 25.3 °F 29.98 in Calm     65% 0.00 in 0 W/m2
01:08 36.1 °F 25.1 °F 29.99 in Calm     64% 0.00 in 0 W/m2
01:14 36.4 °F 25.4 °F 29.99 in Calm     64% 0.00 in 0 W/m2
01:18 36.4 °F 25.4 °F 29.99 in Calm     64% 0.00 in 0 W/m2
01:24 36.3 °F 25.3 °F 29.99 in Calm     64% 0.00 in 0 W/m2
01:30 36.4 °F 25.4 °F 29.99 in Calm     64% 0.00 in 0 W/m2
01:36 36.3 °F 25.3 °F 29.99 in Calm     64% 0.00 in 0 W/m2
01:42 36.1 °F 25.8 °F 29.99 in Calm     66% 0.00 in 0 W/m2
01:48 35.9 °F 25.3 °F 29.99 in Calm     65% 0.00 in 0 W/m2
01:54 35.8 °F 25.2 °F 29.99 in Calm     65% 0.00 in 0 W/m2
02:00 35.9 °F 24.9 °F 29.99 in Calm     64% 0.00 in 0 W/m2
02:06 36.1 °F 25.1 °F 29.99 in Calm     64% 0.00 in 0 W/m2
02:12 36.3 °F 24.9 °F 29.99 in Calm     63% 0.00 in 0 W/m2
02:18 36.7 °F 24.9 °F 30.00 in Calm   3.0 mph 62% 0.00 in 0 W/m2
02:24 37.1 °F 25.3 °F 30.00 in Calm     62% 0.00 in 0 W/m2
02:30 37.1 °F 25.3 °F 30.00 in Calm     62% 0.00 in 0 W/m2
02:36 36.8 °F 25.0 °F 30.00 in Calm     62% 0.00 in 0 W/m2
02:42 36.4 °F 25.0 °F 30.00 in Calm     63% 0.00 in 0 W/m2
02:48 36.0 °F 25.0 °F 30.00 in Calm     64% 0.00 in 0 W/m2
02:54 35.8 °F 24.8 °F 30.00 in Calm     64% 0.00 in 0 W/m2
03:00 35.7 °F 24.7 °F 30.00 in Calm     64% 0.00 in 0 W/m2
03:06 35.5 °F 24.9 °F 30.01 in Calm     65% 0.00 in 0 W/m2
03:12 35.2 °F 25.7 °F 30.00 in Calm     68% 0.00 in 0 W/m2
03:18 34.9 °F 25.0 °F 30.00 in Calm     67% 0.00 in 0 W/m2
03:24 34.8 °F 25.3 °F 30.01 in Calm     68% 0.00 in 0 W/m2
03:30 34.6 °F 25.1 °F 30.01 in Calm     68% 0.00 in 0 W/m2
03:36 34.4 °F 26.0 °F 30.01 in Calm     71% 0.00 in 0 W/m2
03:42 34.2 °F 26.4 °F 30.01 in Calm     73% 0.00 in 0 W/m2
03:48 33.9 °F 25.8 °F 30.00 in Calm     72% 0.00 in 0 W/m2
03:54 33.6 °F 25.5 °F 30.01 in Calm     72% 0.00 in 0 W/m2
04:00 33.5 °F 25.4 °F 30.02 in Calm     72% 0.00 in 0 W/m2
04:06 33.4 °F 25.7 °F 30.02 in Calm     73% 0.00 in 0 W/m2
04:12 33.4 °F 26.0 °F 30.03 in Calm     74% 0.00 in 0 W/m2
04:18 33.2 °F 25.8 °F 30.03 in Calm     74% 0.00 in 0 W/m2
04:24 32.9 °F 25.5 °F 30.03 in Calm     74% 0.00 in 0 W/m2
04:30 32.5 °F 25.5 °F 30.03 in Calm     75% 0.00 in 0 W/m2
04:36 32.2 °F 25.5 °F 30.03 in Calm     76% 0.00 in 0 W/m2
04:42 32.1 °F 25.7 °F 30.03 in Calm     77% 0.00 in 0 W/m2
04:48 31.8 °F 25.4 °F 30.03 in Calm     77% 0.00 in 0 W/m2
04:54 31.7 °F 25.6 °F 30.03 in Calm     78% 0.00 in 0 W/m2
05:00 31.6 °F 25.8 °F 30.03 in Calm     79% 0.00 in 0 W/m2
05:06 31.4 °F 25.9 °F 30.04 in Calm     80% 0.00 in 0 W/m2
05:12 31.0 °F 25.6 °F 30.04 in Calm     80% 0.00 in 0 W/m2
05:18 30.8 °F 25.1 °F 30.04 in Calm     79% 0.00 in 0 W/m2
05:24 30.7 °F 25.3 °F 30.04 in Calm     80% 0.00 in 0 W/m2
05:30 30.5 °F 25.4 °F 30.04 in Calm     81% 0.00 in 0 W/m2
05:36 30.3 °F 25.2 °F 30.04 in Calm     81% 0.00 in 0 W/m2
05:42 30.1 °F 25.3 °F 30.04 in Calm     82% 0.00 in 0 W/m2
05:48 30.0 °F 25.5 °F 30.04 in Calm     83% 0.00 in 0 W/m2
05:54 29.9 °F 25.4 °F 30.05 in Calm     83% 0.00 in 0 W/m2
06:00 29.7 °F 25.2 °F 30.04 in Calm     83% 0.00 in 0 W/m2
06:06 29.6 °F 25.1 °F 30.04 in Calm     83% 0.00 in 0 W/m2
06:12 29.6 °F 25.1 °F 30.04 in Calm     83% 0.00 in 0 W/m2
06:18 29.7 °F 25.5 °F 30.05 in Calm     84% 0.00 in 0 W/m2
06:24 29.8 °F 25.6 °F 30.05 in Calm     84% 0.00 in 0 W/m2
06:30 29.7 °F 25.5 °F 30.05 in Calm     84% 0.00 in 0 W/m2
06:36 29.7 °F 25.5 °F 30.05 in Calm     84% 0.00 in 5 W/m2
06:42 29.8 °F 25.6 °F 30.06 in Calm     84% 0.00 in 9 W/m2
06:48 29.9 °F 25.9 °F 30.06 in Calm     85% 0.00 in 11 W/m2
06:54 29.9 °F 25.9 °F 30.06 in Calm     85% 0.00 in 12 W/m2
07:00 29.9 °F 26.2 °F 30.07 in Calm     86% 0.00 in 16 W/m2
07:06 29.9 °F 26.2 °F 30.07 in Calm     86% 0.00 in 21 W/m2
07:12 29.9 °F 26.5 °F 30.07 in Calm     87% 0.00 in 21 W/m2
07:18 30.0 °F 26.6 °F 30.07 in Calm     87% 0.00 in 26 W/m2
07:24 30.2 °F 26.8 °F 30.07 in Calm     87% 0.00 in 26 W/m2
07:30 30.4 °F 27.0 °F 30.07 in Calm     87% 0.00 in 42 W/m2
07:36 31.0 °F 27.6 °F 30.07 in Calm     87% 0.00 in 139 W/m2
07:42 32.6 °F 29.2 °F 30.07 in Calm     87% 0.00 in 186 W/m2
07:48 34.2 °F 29.9 °F 30.07 in Calm     84% 0.00 in 202 W/m2
07:54 35.7 °F 30.4 °F 30.08 in Calm     81% 0.00 in 204 W/m2
08:00 36.6 °F 30.1 °F 30.08 in Calm     77% 0.00 in 211 W/m2
08:06 37.7 °F 29.8 °F 30.08 in Calm   1.0 mph 73% 0.00 in 188 W/m2
08:12 38.6 °F 29.7 °F 30.08 in NNE 1.0 mph 3.0 mph 70% 0.00 in 193 W/m2
08:18 39.4 °F 29.7 °F 30.08 in NNE 1.0 mph 3.0 mph 68% 0.00 in 279 W/m2
08:24 40.3 °F 30.6 °F 30.08 in NNE 1.0 mph 1.0 mph 68% 0.00 in 232 W/m2
08:30 41.2 °F 31.1 °F 30.08 in Calm   1.0 mph 67% 0.00 in 232 W/m2
08:36 42.1 °F 30.8 °F 30.08 in Calm   1.0 mph 64% 0.00 in 278 W/m2
08:42 42.7 °F 31.0 °F 30.08 in ENE 1.0 mph 2.0 mph 63% 0.00 in 297 W/m2
08:48 43.6 °F 30.6 °F 30.08 in Calm   2.0 mph 60% 0.00 in 264 W/m2
08:54 44.4 °F 30.5 °F 30.08 in Calm     58% 0.00 in 253 W/m2
09:00 44.9 °F 31.0 °F 30.08 in Calm     58% 0.00 in 279 W/m2
09:06 45.6 °F 30.3 °F 30.08 in Calm     55% 0.00 in 272 W/m2
09:12 46.4 °F 30.6 °F 30.08 in Calm     54% 0.00 in 274 W/m2
09:18 46.6 °F 30.8 °F 30.08 in East 1.0 mph 2.0 mph 54% 0.00 in 378 W/m2
09:24 47.3 °F 31.5 °F 30.08 in East 1.0 mph 2.0 mph 54% 0.00 in 461 W/m2
09:30 48.3 °F 32.4 °F 30.08 in Calm   1.0 mph 54% 0.00 in 461 W/m2
09:36 49.1 °F 31.2 °F 30.08 in East 1.0 mph 1.0 mph 50% 0.00 in 483 W/m2
09:42 49.9 °F 31.0 °F 30.08 in Calm   1.0 mph 48% 0.00 in 536 W/m2
09:48 50.6 °F 30.6 °F 30.08 in Calm   1.0 mph 46% 0.00 in 578 W/m2
09:54 51.9 °F 31.2 °F 30.08 in Calm   1.0 mph 45% 0.00 in 592 W/m2
10:00 52.3 °F 31.6 °F 30.08 in Calm     45% 0.00 in 605 W/m2
10:06 53.1 °F 30.6 °F 30.08 in Calm   3.0 mph 42% 0.00 in 613 W/m2
10:12 53.7 °F 30.5 °F 30.07 in SSW 2.0 mph 2.0 mph 41% 0.00 in 642 W/m2
10:18 54.5 °F 31.3 °F 30.07 in SSW 1.0 mph 2.0 mph 41% 0.00 in 657 W/m2
10:24 54.9 °F 30.4 °F 30.07 in South 1.0 mph 4.0 mph 39% 0.00 in 663 W/m2
10:30 54.7 °F 30.8 °F 30.07 in SSE 2.0 mph 3.0 mph 40% 0.00 in 670 W/m2
10:36 55.3 °F 30.7 °F 30.07 in SSW 2.0 mph 4.0 mph 39% 0.00 in 701 W/m2
10:42 56.1 °F 29.5 °F 30.07 in South 1.0 mph 2.0 mph 36% 0.00 in 714 W/m2
10:48 56.8 °F 33.9 °F 30.07 in South 1.0 mph 2.0 mph 42% 0.00 in 738 W/m2
10:54 56.3 °F 30.3 °F 30.07 in South 1.0 mph 3.0 mph 37% 0.00 in 745 W/m2
11:00 56.8 °F 29.4 °F 30.06 in South 2.0 mph 2.0 mph 35% 0.00 in 759 W/m2
11:06 56.8 °F 30.1 °F 30.06 in South 1.0 mph 3.0 mph 36% 0.00 in 770 W/m2
11:12 57.7 °F 30.2 °F 30.06 in South 1.0 mph 1.0 mph 35% 0.00 in 789 W/m2
11:18 58.4 °F 30.1 °F 30.06 in SW 1.0 mph 2.0 mph 34% 0.00 in 798 W/m2
11:24 58.6 °F 30.3 °F 30.06 in WSW 1.0 mph 2.0 mph 34% 0.00 in 814 W/m2
11:30 59.1 °F 29.2 °F 30.06 in WSW 2.0 mph 2.0 mph 32% 0.00 in 826 W/m2
11:36 59.7 °F 34.0 °F 30.06 in SSE 3.0 mph 4.0 mph 38% 0.00 in 851 W/m2
11:42 59.3 °F 33.0 °F 30.06 in SSE 3.0 mph 4.0 mph 37% 0.00 in 622 W/m2
11:48 59.0 °F 32.1 °F 30.06 in South 3.0 mph 4.0 mph 36% 0.00 in 833 W/m2
11:54 59.8 °F 31.3 °F 30.06 in SSE 3.0 mph 5.0 mph 34% 0.00 in 726 W/m2
12:00 59.8 °F 32.8 °F 30.06 in SSW 2.0 mph 2.0 mph 36% 0.00 in 846 W/m2
12:06 60.5 °F 30.5 °F 30.05 in SSE 1.0 mph 5.0 mph 32% 0.00 in 860 W/m2
12:12 60.8 °F 31.5 °F 30.05 in SSE 3.0 mph 4.0 mph 33% 0.00 in 842 W/m2
12:18 61.3 °F 30.4 °F 30.05 in South 4.0 mph 7.0 mph 31% 0.00 in 851 W/m2
12:24 61.5 °F 32.1 °F 30.05 in West 4.0 mph 4.0 mph 33% 0.00 in 867 W/m2
12:30 61.8 °F 25.6 °F 30.05 in West 4.0 mph 7.0 mph 25% 0.00 in 831 W/m2
12:36 62.1 °F 28.6 °F 30.05 in SW 4.0 mph 7.0 mph 28% 0.00 in 840 W/m2
12:42 62.5 °F 31.4 °F 30.04 in SSW 3.0 mph 5.0 mph 31% 0.00 in 896 W/m2
12:48 62.4 °F 27.9 °F 30.04 in SSW 3.0 mph 5.0 mph 27% 0.00 in 831 W/m2
12:54 62.6 °F 30.7 °F 30.04 in SW 4.0 mph 6.0 mph 30% 0.00 in 612 W/m2
13:00 62.8 °F 29.2 °F 30.04 in SSW 4.0 mph 6.0 mph 28% 0.00 in 726 W/m2
13:06 62.8 °F 32.5 °F 30.04 in SSW 4.0 mph 7.0 mph 32% 0.00 in 853 W/m2
13:14 62.7 °F 28.2 °F 30.04 in South 3.0 mph 6.0 mph 27% 0.00 in 849 W/m2
13:20 63.3 °F 31.3 °F 30.04 in South 3.0 mph 8.0 mph 30% 0.00 in 837 W/m2
13:26 62.6 °F 27.2 °F 30.04 in South 4.0 mph 8.0 mph 26% 0.00 in 849 W/m2
13:32 63.0 °F 26.6 °F 30.04 in SW 5.0 mph 6.0 mph 25% 0.00 in 851 W/m2
13:38 63.8 °F 29.1 °F 30.04 in SSW 4.0 mph 6.0 mph 27% 0.00 in 847 W/m2
13:44 63.6 °F 28.1 °F 30.04 in SSE 3.0 mph 9.0 mph 26% 0.00 in 830 W/m2
13:50 63.1 °F 28.5 °F 30.04 in SSW 4.0 mph 4.0 mph 27% 0.00 in 828 W/m2
13:56 64.5 °F 30.6 °F 30.04 in West 3.0 mph 4.0 mph 28% 0.00 in 826 W/m2
14:02 64.6 °F 30.7 °F 30.03 in South 3.0 mph 4.0 mph 28% 0.00 in 824 W/m2
14:08 64.3 °F 27.7 °F 30.03 in SSE 4.0 mph 6.0 mph 25% 0.00 in 810 W/m2
14:14 64.4 °F 29.7 °F 30.03 in SSE 4.0 mph 6.0 mph 27% 0.00 in 802 W/m2
14:18 64.9 °F 30.1 °F 30.03 in SSW 4.0 mph 6.0 mph 27% 0.00 in 798 W/m2
14:26 65.3 °F 29.5 °F 30.03 in SSE 3.0 mph 7.0 mph 26% 0.00 in 775 W/m2
14:32 64.3 °F 26.7 °F 30.03 in South 4.0 mph 5.0 mph 24% 0.00 in 777 W/m2
14:38 64.8 °F 30.0 °F 30.02 in SSW 4.0 mph 7.0 mph 27% 0.00 in 679 W/m2
14:44 65.3 °F 28.5 °F 30.02 in WSW 5.0 mph 5.0 mph 25% 0.00 in 735 W/m2
14:50 65.5 °F 28.7 °F 30.02 in SSE 4.0 mph 7.0 mph 25% 0.00 in 728 W/m2
14:56 65.7 °F 28.9 °F 30.02 in South 4.0 mph 7.0 mph 25% 0.00 in 673 W/m2
15:02 65.9 °F 27.0 °F 30.01 in SW 3.0 mph 4.0 mph 23% 0.00 in 659 W/m2
15:08 65.6 °F 25.7 °F 30.01 in SSW 4.0 mph 6.0 mph 22% 0.00 in 670 W/m2
15:14 66.0 °F 26.0 °F 30.01 in SW 4.0 mph 6.0 mph 22% 0.00 in 659 W/m2
15:20 66.0 °F 28.1 °F 30.01 in SSE 3.0 mph 3.0 mph 24% 0.00 in 661 W/m2
15:26 66.1 °F 30.2 °F 30.01 in SSE 4.0 mph 7.0 mph 26% 0.00 in 659 W/m2
15:32 66.0 °F 27.1 °F 30.01 in SSE 5.0 mph 5.0 mph 23% 0.00 in 621 W/m2
15:40 66.2 °F 27.3 °F 30.01 in SSW 4.0 mph 7.0 mph 23% 0.00 in 635 W/m2
15:46 66.4 °F 26.4 °F 30.00 in South 5.0 mph 7.0 mph 22% 0.00 in 649 W/m2
15:52 66.9 °F 28.9 °F 30.00 in SW 4.0 mph 9.0 mph 24% 0.00 in 605 W/m2
15:58 66.2 °F 27.3 °F 30.00 in South 5.0 mph 9.0 mph 23% 0.00 in 606 W/m2
16:04 66.4 °F 28.5 °F 30.00 in South 5.0 mph 7.0 mph 24% 0.00 in 585 W/m2
16:10 67.0 °F 29.0 °F 29.99 in SW 4.0 mph 6.0 mph 24% 0.00 in 490 W/m2
16:16 67.0 °F 30.0 °F 30.00 in SSW 4.0 mph 6.0 mph 25% 0.00 in 471 W/m2
16:22 67.1 °F 25.8 °F 29.99 in SW 4.0 mph 6.0 mph 21% 0.00 in 408 W/m2
16:28 67.3 °F 26.0 °F 29.99 in WSW 3.0 mph 6.0 mph 21% 0.00 in 462 W/m2
16:34 67.4 °F 29.3 °F 29.99 in SSW 4.0 mph 8.0 mph 24% 0.00 in 434 W/m2
16:40 67.6 °F 27.4 °F 29.99 in South 4.0 mph 4.0 mph 22% 0.00 in 446 W/m2
16:46 67.5 °F 26.2 °F 29.99 in WSW 4.0 mph 5.0 mph 21% 0.00 in 355 W/m2
16:52 67.7 °F 30.6 °F 29.99 in South 3.0 mph 3.0 mph 25% 0.00 in 371 W/m2
16:58 67.6 °F 27.4 °F 29.99 in SSW 2.0 mph 3.0 mph 22% 0.00 in 287 W/m2
17:04 67.2 °F 27.0 °F 29.98 in South 3.0 mph 5.0 mph 22% 0.00 in 255 W/m2
17:10 67.1 °F 26.9 °F 29.98 in SSW 3.0 mph 3.0 mph 22% 0.00 in 243 W/m2
17:16 67.1 °F 28.0 °F 29.98 in South 2.0 mph 4.0 mph 23% 0.00 in 278 W/m2
17:22 67.2 °F 27.0 °F 29.98 in South 3.0 mph 3.0 mph 22% 0.00 in 279 W/m2
17:28 67.3 °F 28.2 °F 29.98 in West 4.0 mph 7.0 mph 23% 0.00 in 258 W/m2
17:34 67.5 °F 27.3 °F 29.98 in SSW 3.0 mph 3.0 mph 22% 0.00 in 234 W/m2
17:40 67.5 °F 30.4 °F 29.98 in SSE 2.0 mph 3.0 mph 25% 0.00 in 220 W/m2
17:46 67.4 °F 27.2 °F 29.98 in SSE 2.0 mph 4.0 mph 22% 0.00 in 232 W/m2
17:52 67.4 °F 29.3 °F 29.98 in South 3.0 mph 6.0 mph 24% 0.00 in 237 W/m2
17:58 67.3 °F 30.2 °F 29.97 in SSE 3.0 mph 6.0 mph 25% 0.00 in 176 W/m2
18:04 67.3 °F 31.2 °F 29.97 in SSE 2.0 mph 5.0 mph 26% 0.00 in 156 W/m2
18:10 67.3 °F 28.2 °F 29.97 in SSE 3.0 mph 3.0 mph 23% 0.00 in 135 W/m2
18:16 67.2 °F 30.2 °F 29.97 in SW 3.0 mph 4.0 mph 25% 0.00 in 125 W/m2
18:22 67.0 °F 30.0 °F 29.96 in South 2.0 mph 3.0 mph 25% 0.00 in 125 W/m2
18:28 67.0 °F 30.0 °F 29.96 in South 2.0 mph 3.0 mph 25% 0.00 in 111 W/m2
18:34 67.0 °F 31.0 °F 29.96 in South 2.0 mph 3.0 mph 26% 0.00 in 91 W/m2
18:40 66.9 °F 29.9 °F 29.96 in SSE 1.0 mph 4.0 mph 25% 0.00 in 93 W/m2
18:46 66.6 °F 30.6 °F 29.96 in SSE 1.0 mph 4.0 mph 26% 0.00 in 69 W/m2
18:52 66.5 °F 29.6 °F 29.96 in SSE 1.0 mph 1.0 mph 25% 0.00 in 58 W/m2
18:58 66.3 °F 31.3 °F 29.96 in SSE 1.0 mph 1.0 mph 27% 0.00 in 42 W/m2
19:04 65.9 °F 30.9 °F 29.96 in Calm     27% 0.00 in 32 W/m2
19:10 65.4 °F 31.4 °F 29.96 in Calm   1.0 mph 28% 0.00 in 25 W/m2
19:16 64.7 °F 30.8 °F 29.96 in Calm   1.0 mph 28% 0.00 in 18 W/m2
19:22 63.9 °F 31.8 °F 29.96 in Calm     30% 0.00 in 14 W/m2
19:28 63.1 °F 31.9 °F 29.96 in Calm     31% 0.00 in 11 W/m2
19:34 62.0 °F 31.8 °F 29.96 in Calm     32% 0.00 in 7 W/m2
19:40 60.5 °F 34.7 °F 29.95 in Calm     38% 0.00 in 0 W/m2
19:46 59.6 °F 35.9 °F 29.95 in SSE 1.0 mph 1.0 mph 41% 0.00 in 0 W/m2
19:52 58.7 °F 35.7 °F 29.95 in Calm     42% 0.00 in 0 W/m2
19:58 58.0 °F 34.4 °F 29.95 in Calm     41% 0.00 in 0 W/m2
20:04 57.1 °F 35.4 °F 29.95 in Calm     44% 0.00 in 0 W/m2
20:10 56.4 °F 34.7 °F 29.95 in Calm     44% 0.00 in 0 W/m2
20:16 55.8 °F 33.6 °F 29.95 in Calm     43% 0.00 in 0 W/m2
20:22 55.1 °F 34.1 °F 29.95 in Calm     45% 0.00 in 0 W/m2
20:28 54.6 °F 35.3 °F 29.95 in Calm     48% 0.00 in 0 W/m2
20:34 54.2 °F 34.4 °F 29.96 in Calm     47% 0.00 in 0 W/m2
20:40 53.7 °F 33.4 °F 29.96 in Calm     46% 0.00 in 0 W/m2
20:46 53.3 °F 33.0 °F 29.96 in Calm     46% 0.00 in 0 W/m2
20:52 53.1 °F 34.4 °F 29.96 in Calm     49% 0.00 in 0 W/m2
20:58 52.9 °F 32.7 °F 29.96 in Calm     46% 0.00 in 0 W/m2
21:04 53.1 °F 33.4 °F 29.96 in Calm     47% 0.00 in 0 W/m2
21:10 52.9 °F 34.8 °F 29.96 in Calm     50% 0.00 in 0 W/m2
21:16 52.9 °F 33.7 °F 29.96 in Calm     48% 0.00 in 0 W/m2
21:22 53.1 °F 32.8 °F 29.96 in Calm   1.0 mph 46% 0.00 in 0 W/m2
21:28 53.3 °F 33.6 °F 29.96 in Calm   1.0 mph 47% 0.00 in 0 W/m2
21:34 53.4 °F 33.7 °F 29.96 in Calm     47% 0.00 in 0 W/m2
21:40 53.5 °F 32.7 °F 29.96 in Calm     45% 0.00 in 0 W/m2
21:46 53.6 °F 33.3 °F 29.96 in Calm     46% 0.00 in 0 W/m2
21:52 53.8 °F 33.5 °F 29.96 in Calm     46% 0.00 in 0 W/m2
21:58 54.3 °F 32.3 °F 29.96 in SSE 1.0 mph 1.0 mph 43% 0.00 in 0 W/m2
22:04 54.8 °F 32.1 °F 29.96 in SSE 1.0 mph 1.0 mph 42% 0.00 in 0 W/m2
22:10 55.2 °F 31.9 °F 29.96 in Calm     41% 0.00 in 0 W/m2
22:16 55.5 °F 32.2 °F 29.96 in Calm   1.0 mph 41% 0.00 in 0 W/m2
22:22 56.2 °F 32.8 °F 29.96 in SSE 1.0 mph 1.0 mph 41% 0.00 in 0 W/m2
22:28 57.5 °F 31.4 °F 29.96 in SSE 1.0 mph 2.0 mph 37% 0.00 in 0 W/m2
22:34 58.1 °F 31.9 °F 29.96 in South 1.0 mph 2.0 mph 37% 0.00 in 0 W/m2
22:40 58.2 °F 30.7 °F 29.96 in South 2.0 mph 4.0 mph 35% 0.00 in 0 W/m2
22:46 58.8 °F 31.9 °F 29.96 in SSE 2.0 mph 4.0 mph 36% 0.00 in 0 W/m2
22:52 59.0 °F 31.4 °F 29.96 in SSE 2.0 mph 2.0 mph 35% 0.00 in 0 W/m2
22:58 59.2 °F 30.8 °F 29.96 in South 1.0 mph 2.0 mph 34% 0.00 in 0 W/m2
23:04 59.1 °F 30.0 °F 29.96 in SSW 1.0 mph 1.0 mph 33% 0.00 in 0 W/m2
23:10 58.8 °F 30.5 °F 29.96 in South 1.0 mph 1.0 mph 34% 0.00 in 0 W/m2
23:16 58.6 °F 31.0 °F 29.96 in South 1.0 mph 3.0 mph 35% 0.00 in 0 W/m2
23:22 58.2 °F 30.7 °F 29.96 in SE 1.0 mph 1.0 mph 35% 0.00 in 0 W/m2
23:28 58.2 °F 30.7 °F 29.96 in South 2.0 mph 3.0 mph 35% 0.00 in 0 W/m2
23:34 58.4 °F 30.8 °F 29.96 in South 2.0 mph 5.0 mph 35% 0.00 in 0 W/m2
23:38 58.7 °F 30.4 °F 29.96 in South 2.0 mph 5.0 mph 34% 0.00 in 0 W/m2
23:44 58.7 °F 29.6 °F 29.96 in South 1.0 mph 2.0 mph 33% 0.00 in 0 W/m2
23:50 58.5 °F 30.2 °F 29.96 in SSW 1.0 mph 1.0 mph 34% 0.00 in 0 W/m2
23:56 58.8 °F 30.5 °F 29.97 in SSE 1.0 mph 2.0 mph 34% 0.00 in 0 W/m2
Country Meadow, Clay, NY, USA
Compliments of Weather Underground - 2 mb